Time;durP1;ratioP1;P1;durP2;ratioP2;P2;SDS_P1;SDS_P2;PMS_P1;PMS_P2;Temp;Humidity;BMP_temperature;BMP_pressure;BME280_temperature;BME280_humidity;BME280_pressure;Samples;Min_cycle;Max_cycle;Signal;HPM_P1;HPM_P2
2021/06/05 00:00:35;;;;;;;9.73;5.63;;;;;;;;;;5012569;28;20021;-76
2021/06/05 00:03:01;;;;;;;8.13;5.75;;;;;;;;;;5014290;28;20092;-76
2021/06/05 00:05:28;;;;;;;10.93;5.55;;;;;;;;;;5013991;28;20025;-76
2021/06/05 00:07:53;;;;;;;5.43;3.88;;;;;;;;;;5030938;28;20034;-76
2021/06/05 00:10:29;;;;;;;7.07;4.30;;;;;;;;;;4998152;28;20076;-76
2021/06/05 00:12:54;;;;;;;6.60;4.00;;;;;;;;;;5031812;28;20060;-76
2021/06/05 00:15:22;;;;;;;6.80;3.45;;;;;;;;;;4996919;28;20383;-76
2021/06/05 00:17:48;;;;;;;5.88;3.30;;;;;;;;;;5030955;28;20109;-76
2021/06/05 00:20:13;;;;;;;4.82;3.17;;;;;;;;;;5014117;28;20029;-76
2021/06/05 00:22:39;;;;;;;5.07;3.83;;;;;;;;;;5014034;28;20052;-76
2021/06/05 00:25:08;;;;;;;5.85;3.28;;;;;;;;;;5030111;28;20503;-75
2021/06/05 00:27:34;;;;;;;5.15;3.08;;;;;;;;;;4997636;28;20039;-76
2021/06/05 00:30:01;;;;;;;5.10;3.03;;;;;;;;;;5031090;28;20136;-76
2021/06/05 00:32:26;;;;;;;6.03;3.40;;;;;;;;;;5021167;28;20051;-76
2021/06/05 00:34:52;;;;;;;4.65;2.97;;;;;;;;;;5013819;28;20403;-76
2021/06/05 00:37:17;;;;;;;3.85;2.70;;;;;;;;;;4997688;28;20049;-76
2021/06/05 00:39:43;;;;;;;3.83;2.60;;;;;;;;;;5013715;28;20038;-76
2021/06/05 00:42:08;;;;;;;4.60;2.47;;;;;;;;;;5030365;28;20048;-76
2021/06/05 00:44:34;;;;;;;5.82;3.28;;;;;;;;;;5013328;28;20033;-76
2021/06/05 00:46:59;;;;;;;3.70;2.78;;;;;;;;;;4997637;28;20029;-76
2021/06/05 00:49:24;;;;;;;3.67;2.67;;;;;;;;;;5010392;28;20029;-76
2021/06/05 00:51:51;;;;;;;5.15;2.60;;;;;;;;;;5010514;28;20119;-76
2021/06/05 00:54:17;;;;;;;3.63;2.40;;;;;;;;;;5010185;28;20029;-75
2021/06/05 00:56:45;;;;;;;6.53;2.90;;;;;;;;;;4994198;28;20037;-76
2021/06/05 00:59:11;;;;;;;4.13;2.80;;;;;;;;;;5010444;28;20125;-76
2021/06/05 01:01:36;;;;;;;5.88;2.85;;;;;;;;;;5009884;28;20041;-76
2021/06/05 01:04:02;;;;;;;4.18;2.28;;;;;;;;;;4993982;28;20058;-76
2021/06/05 01:06:39;;;;;;;4.07;2.60;;;;;;;;;;5010631;28;20038;-76
2021/06/05 01:09:06;;;;;;;5.30;2.58;;;;;;;;;;4994250;28;20546;-76
2021/06/05 01:11:37;;;;;;;4.60;2.28;;;;;;;;;;5010077;28;20044;-76
2021/06/05 01:14:14;;;;;;;4.70;2.40;;;;;;;;;;5010022;28;20034;-76
2021/06/05 01:16:40;;;;;;;3.55;2.72;;;;;;;;;;5026630;28;20034;-75
2021/06/05 01:19:34;;;;;;;6.40;3.45;;;;;;;;;;4994222;28;20038;-76
2021/06/05 01:22:29;;;;;;;5.80;3.10;;;;;;;;;;4996183;28;20486;-76
2021/06/05 01:25:10;;;;;;;5.95;3.28;;;;;;;;;;4994689;28;20033;-76
2021/06/05 01:27:38;;;;;;;5.38;3.55;;;;;;;;;;4995288;28;20065;-76
2021/06/05 01:30:13;;;;;;;4.95;3.53;;;;;;;;;;5033432;28;20029;-76
2021/06/05 01:32:39;;;;;;;6.20;3.35;;;;;;;;;;5022533;28;20097;-75
2021/06/05 01:35:05;;;;;;;5.30;3.63;;;;;;;;;;5000585;28;20045;-76
2021/06/05 01:37:31;;;;;;;4.80;3.08;;;;;;;;;;5000687;28;20076;-76
2021/06/05 01:39:56;;;;;;;8.40;4.07;;;;;;;;;;5000487;28;20037;-76
2021/06/05 01:42:28;;;;;;;6.95;4.40;;;;;;;;;;5000212;28;20037;-76
2021/06/05 01:44:54;;;;;;;;;;;;;;;;;;5001109;28;20041;-75
2021/06/05 01:47:20;;;;;;;8.43;4.65;;;;;;;;;;5016739;28;19905;-76
2021/06/05 01:49:46;;;;;;;9.55;5.80;;;;;;;;;;5013574;28;20065;-76
2021/06/05 01:52:20;;;;;;;7.53;5.88;;;;;;;;;;4997413;28;20038;-76
2021/06/05 01:54:52;;;;;;;8.32;5.63;;;;;;;;;;5014138;28;20114;-76
2021/06/05 01:57:18;;;;;;;7.53;6.13;;;;;;;;;;4996860;28;20036;-76
2021/06/05 01:59:44;;;;;;;8.00;5.78;;;;;;;;;;5013073;28;20038;-76
2021/06/05 02:02:10;;;;;;;9.00;6.93;;;;;;;;;;5007325;28;20025;-76
2021/06/05 02:04:36;;;;;;;10.73;7.60;;;;;;;;;;5013022;28;20259;-76
2021/06/05 02:07:02;;;;;;;9.50;7.38;;;;;;;;;;4996812;28;20085;-76
2021/06/05 02:09:28;;;;;;;9.95;7.30;;;;;;;;;;4980155;28;20029;-76
2021/06/05 02:11:57;;;;;;;9.18;7.63;;;;;;;;;;5012786;28;20045;-76
2021/06/05 02:14:29;;;;;;;9.82;7.93;;;;;;;;;;4996311;28;20038;-76
2021/06/05 02:16:54;;;;;;;9.18;7.75;;;;;;;;;;5012849;28;20026;-76
2021/06/05 02:19:24;;;;;;;9.77;8.15;;;;;;;;;;4996232;28;20034;-76
2021/06/05 02:21:50;;;;;;;9.52;7.90;;;;;;;;;;4996585;28;20045;-76
2021/06/05 02:24:17;;;;;;;10.68;9.57;;;;;;;;;;5012533;28;20042;-76
2021/06/05 02:26:43;;;;;;;10.77;9.15;;;;;;;;;;5012664;28;20029;-76
2021/06/05 02:29:09;;;;;;;11.38;9.63;;;;;;;;;;5033578;28;20500;-76
2021/06/05 02:31:35;;;;;;;9.43;8.20;;;;;;;;;;5029875;28;20072;-76
2021/06/05 02:34:00;;;;;;;10.30;8.70;;;;;;;;;;4999270;28;20076;-76
2021/06/05 02:36:26;;;;;;;10.40;8.90;;;;;;;;;;5015756;28;20124;-76
2021/06/05 02:38:53;;;;;;;12.55;9.65;;;;;;;;;;5015444;28;20037;-76
2021/06/05 02:41:20;;;;;;;10.25;8.68;;;;;;;;;;4999558;28;20380;-76
2021/06/05 02:43:46;;;;;;;10.23;8.80;;;;;;;;;;5015592;28;20530;-76
2021/06/05 02:46:15;;;;;;;10.20;9.18;;;;;;;;;;5015040;28;20065;-76
2021/06/05 02:48:50;;;;;;;12.93;11.38;;;;;;;;;;5015600;28;20025;-75
2021/06/05 02:51:16;;;;;;;14.40;12.05;;;;;;;;;;5016304;28;20025;-76
2021/06/05 02:53:42;;;;;;;14.15;10.48;;;;;;;;;;5015044;28;20130;-76
2021/06/05 02:56:08;;;;;;;13.00;11.48;;;;;;;;;;5015175;28;20426;-76
2021/06/05 02:58:34;;;;;;;15.02;12.00;;;;;;;;;;4999204;28;20083;-76
2021/06/05 03:00:59;;;;;;;12.32;10.77;;;;;;;;;;4995374;28;20029;-75
2021/06/05 03:03:25;;;;;;;14.07;12.07;;;;;;;;;;4995287;28;20403;-76
2021/06/05 03:05:50;;;;;;;12.38;11.07;;;;;;;;;;4995372;28;20084;-76
2021/06/05 03:08:26;;;;;;;12.52;11.02;;;;;;;;;;5011797;28;20076;-75
2021/06/05 03:10:52;;;;;;;15.20;12.00;;;;;;;;;;4995809;28;20042;-75
2021/06/05 03:13:18;;;;;;;16.27;13.02;;;;;;;;;;4995040;28;20040;-76
2021/06/05 03:15:44;;;;;;;17.52;13.23;;;;;;;;;;4995434;28;20048;-76
2021/06/05 03:18:11;;;;;;;16.08;12.48;;;;;;;;;;4995438;28;20109;-75
2021/06/05 03:20:38;;;;;;;15.00;12.93;;;;;;;;;;4995277;28;20088;-76
2021/06/05 03:23:04;;;;;;;16.10;13.50;;;;;;;;;;4995099;28;20503;-76
2021/06/05 03:25:30;;;;;;;16.83;12.95;;;;;;;;;;4994897;28;20057;-76
2021/06/05 03:27:57;;;;;;;15.73;13.95;;;;;;;;;;4996528;28;20034;-76
2021/06/05 03:30:23;;;;;;;17.90;14.75;;;;;;;;;;5051381;28;20479;-75
2021/06/05 03:32:49;;;;;;;14.27;12.82;;;;;;;;;;5015357;28;20030;-76
2021/06/05 03:35:14;;;;;;;16.05;14.35;;;;;;;;;;4978685;28;20033;-76
2021/06/05 03:37:40;;;;;;;19.02;15.23;;;;;;;;;;4995236;28;20029;-76
2021/06/05 03:40:07;;;;;;;18.20;15.02;;;;;;;;;;4994614;28;20493;-76
2021/06/05 03:42:32;;;;;;;22.15;15.10;;;;;;;;;;4994885;28;20038;-76
2021/06/05 03:44:58;;;;;;;18.48;15.38;;;;;;;;;;4994710;28;20562;-76
2021/06/05 03:47:24;;;;;;;17.48;14.93;;;;;;;;;;5011036;28;20034;-76
2021/06/05 03:49:52;;;;;;;17.77;14.20;;;;;;;;;;4981401;28;20471;-76
2021/06/05 03:52:22;;;;;;;18.92;15.77;;;;;;;;;;5014938;28;20083;-76
2021/06/05 03:54:51;;;;;;;20.80;17.60;;;;;;;;;;4999320;28;20029;-76
2021/06/05 03:57:17;;;;;;;19.10;15.13;;;;;;;;;;5014698;28;20041;-76
2021/06/05 03:59:42;;;;;;;19.58;16.70;;;;;;;;;;4997669;28;20037;-76
2021/06/05 04:02:08;;;;;;;20.73;17.08;;;;;;;;;;4994520;28;20129;-76
2021/06/05 04:04:33;;;;;;;19.63;17.27;;;;;;;;;;4994499;28;20103;-76
2021/06/05 04:06:59;;;;;;;21.52;16.70;;;;;;;;;;4994130;28;20107;-76
2021/06/05 04:09:24;;;;;;;24.42;17.67;;;;;;;;;;4977916;28;20033;-76
2021/06/05 04:11:50;;;;;;;21.10;17.38;;;;;;;;;;5010592;28;20048;-76
2021/06/05 04:14:15;;;;;;;24.65;18.90;;;;;;;;;;4994432;28;20369;-76
2021/06/05 04:16:41;;;;;;;22.65;19.05;;;;;;;;;;5010975;28;20038;-75
2021/06/05 04:19:06;;;;;;;19.33;16.83;;;;;;;;;;4994353;28;20225;-76
2021/06/05 04:21:32;;;;;;;19.92;17.20;;;;;;;;;;5010343;28;20095;-75
2021/06/05 04:23:57;;;;;;;22.58;16.73;;;;;;;;;;4994489;28;20034;-76
2021/06/05 04:26:23;;;;;;;22.70;18.10;;;;;;;;;;4994241;28;20042;-76
2021/06/05 04:28:48;;;;;;;21.48;17.42;;;;;;;;;;5010271;28;20025;-76
2021/06/05 04:31:14;;;;;;;18.27;15.70;;;;;;;;;;5047114;28;20364;-76
2021/06/05 04:33:40;;;;;;;20.38;17.33;;;;;;;;;;4997288;28;20045;-76
2021/06/05 04:36:08;;;;;;;20.38;16.08;;;;;;;;;;4997516;28;20387;-76
2021/06/05 04:38:37;;;;;;;20.33;16.63;;;;;;;;;;5014140;28;20021;-76
2021/06/05 04:41:03;;;;;;;20.17;16.50;;;;;;;;;;4981641;28;20038;-76
2021/06/05 04:43:29;;;;;;;20.67;16.52;;;;;;;;;;5013291;28;20021;-76
2021/06/05 04:45:54;;;;;;;23.63;17.23;;;;;;;;;;5013528;28;20036;-76
2021/06/05 04:48:20;;;;;;;20.48;16.30;;;;;;;;;;5013810;28;20025;-76
2021/06/05 04:50:46;;;;;;;22.80;16.63;;;;;;;;;;4997532;28;20179;-76
2021/06/05 04:53:11;;;;;;;17.75;15.45;;;;;;;;;;4997177;28;20040;-76
2021/06/05 04:55:37;;;;;;;20.35;14.50;;;;;;;;;;5013537;28;20535;-76
2021/06/05 04:58:03;;;;;;;20.13;15.65;;;;;;;;;;5014165;28;20029;-76
2021/06/05 05:00:35;;;;;;;18.25;14.60;;;;;;;;;;4997059;28;20113;-76
2021/06/05 05:03:00;;;;;;;20.53;14.77;;;;;;;;;;5017822;28;20042;-76
2021/06/05 05:05:25;;;;;;;18.65;15.88;;;;;;;;;;5000788;28;21196;-76
2021/06/05 05:07:51;;;;;;;17.58;13.68;;;;;;;;;;5035053;28;20034;-76
2021/06/05 05:10:21;;;;;;;15.52;13.27;;;;;;;;;;5017615;28;20041;-76
2021/06/05 05:12:47;;;;;;;18.38;13.65;;;;;;;;;;5017375;28;20102;-76
2021/06/05 05:15:12;;;;;;;13.32;11.82;;;;;;;;;;5017055;28;20033;-76
2021/06/05 05:17:38;;;;;;;14.13;12.23;;;;;;;;;;5017396;28;20108;-76
2021/06/05 05:20:05;;;;;;;16.13;12.23;;;;;;;;;;5016912;28;20071;-77
2021/06/05 05:22:30;;;;;;;13.43;11.35;;;;;;;;;;5001090;28;20032;-77
2021/06/05 05:24:56;;;;;;;13.68;11.05;;;;;;;;;;5000412;28;20432;-77
2021/06/05 05:27:21;;;;;;;14.32;11.60;;;;;;;;;;5016607;28;20112;-77
2021/06/05 05:29:47;;;;;;;12.93;9.35;;;;;;;;;;5032983;28;20028;-77
2021/06/05 05:32:12;;;;;;;11.43;10.07;;;;;;;;;;5026194;28;20033;-78
2021/06/05 05:34:38;;;;;;;12.10;10.80;;;;;;;;;;5016459;28;20047;-78
2021/06/05 05:37:04;;;;;;;11.18;9.77;;;;;;;;;;5017240;28;20041;-78
2021/06/05 05:39:29;;;;;;;10.05;8.65;;;;;;;;;;5016650;28;20434;-77
2021/06/05 05:41:54;;;;;;;10.10;8.43;;;;;;;;;;5016757;28;20044;-77
2021/06/05 05:44:20;;;;;;;11.35;9.02;;;;;;;;;;5016634;28;20037;-77
2021/06/05 05:46:46;;;;;;;9.20;6.65;;;;;;;;;;5016546;28;20057;-77
2021/06/05 05:49:12;;;;;;;7.63;6.50;;;;;;;;;;5013240;28;20037;-77
2021/06/05 05:51:37;;;;;;;7.13;5.80;;;;;;;;;;4980708;28;20045;-76
2021/06/05 05:54:03;;;;;;;6.70;5.30;;;;;;;;;;4996718;28;20476;-76
2021/06/05 05:56:29;;;;;;;7.22;5.18;;;;;;;;;;5013375;28;20033;-76
2021/06/05 05:58:55;;;;;;;6.03;4.65;;;;;;;;;;5013376;28;20030;-76
2021/06/05 06:01:21;;;;;;;5.10;4.20;;;;;;;;;;5013039;28;20079;-76
2021/06/05 06:03:50;;;;;;;6.47;4.32;;;;;;;;;;4996277;28;20057;-76
2021/06/05 06:06:16;;;;;;;5.75;3.65;;;;;;;;;;4997324;28;20026;-76
2021/06/05 06:08:41;;;;;;;5.18;3.38;;;;;;;;;;5013082;28;20450;-76
2021/06/05 06:11:09;;;;;;;3.97;2.95;;;;;;;;;;5012600;28;20044;-76
2021/06/05 06:13:34;;;;;;;4.43;2.83;;;;;;;;;;5012037;28;20049;-76
2021/06/05 06:16:00;;;;;;;5.60;2.88;;;;;;;;;;4996204;28;20096;-76
2021/06/05 06:18:25;;;;;;;4.75;2.72;;;;;;;;;;4996449;28;20026;-76
2021/06/05 06:20:53;;;;;;;3.42;2.35;;;;;;;;;;4996476;28;20033;-76
2021/06/05 06:23:23;;;;;;;3.92;2.70;;;;;;;;;;4996030;28;20475;-76
2021/06/05 06:25:50;;;;;;;4.57;2.90;;;;;;;;;;5012935;28;20488;-76
2021/06/05 06:28:17;;;;;;;3.47;2.85;;;;;;;;;;5003285;28;20360;-76
2021/06/05 06:30:43;;;;;;;3.90;2.80;;;;;;;;;;5035717;28;20107;-76
2021/06/05 06:33:09;;;;;;;3.97;2.70;;;;;;;;;;5000019;28;20579;-76
2021/06/05 06:35:35;;;;;;;3.90;2.53;;;;;;;;;;4983110;28;20065;-77
2021/06/05 06:38:01;;;;;;;4.70;2.95;;;;;;;;;;5016037;28;20071;-76
2021/06/05 06:40:33;;;;;;;3.72;2.92;;;;;;;;;;4995988;28;20081;-77
2021/06/05 06:43:02;;;;;;;5.22;3.10;;;;;;;;;;4996693;28;20030;-76
2021/06/05 06:45:28;;;;;;;3.63;2.47;;;;;;;;;;4995671;28;20552;-76
2021/06/05 06:47:54;;;;;;;3.88;2.75;;;;;;;;;;4995929;28;20157;-76
2021/06/05 06:50:21;;;;;;;3.80;2.78;;;;;;;;;;5015704;28;20029;-76
2021/06/05 06:52:46;;;;;;;4.18;2.72;;;;;;;;;;4999450;28;20029;-76
2021/06/05 06:55:12;;;;;;;3.92;2.83;;;;;;;;;;4998862;28;20029;-76
2021/06/05 06:57:37;;;;;;;4.00;2.63;;;;;;;;;;5015276;28;20041;-76
2021/06/05 07:00:06;;;;;;;4.53;2.83;;;;;;;;;;5031802;28;20079;-76
2021/06/05 07:02:31;;;;;;;4.13;3.13;;;;;;;;;;4993822;28;20030;-76
2021/06/05 07:04:56;;;;;;;4.13;2.40;;;;;;;;;;5009068;28;20416;-76
2021/06/05 07:07:22;;;;;;;4.28;2.72;;;;;;;;;;4976776;28;20484;-76
2021/06/05 07:09:47;;;;;;;3.30;2.58;;;;;;;;;;4995248;28;20041;-76
2021/06/05 07:12:13;;;;;;;5.03;2.95;;;;;;;;;;4995477;28;20443;-76
2021/06/05 07:14:40;;;;;;;3.85;2.70;;;;;;;;;;5011482;28;20080;-76
2021/06/05 07:17:06;;;;;;;4.30;1.88;;;;;;;;;;4995030;28;20033;-76
2021/06/05 07:19:31;;;;;;;5.22;3.35;;;;;;;;;;5011726;28;20048;-76
2021/06/05 07:21:57;;;;;;;3.03;1.90;;;;;;;;;;4995528;28;20124;-76
2021/06/05 07:24:23;;;;;;;4.50;2.63;;;;;;;;;;4993933;28;20038;-76
2021/06/05 07:26:49;;;;;;;3.35;2.20;;;;;;;;;;4994811;28;20040;-76
2021/06/05 07:29:14;;;;;;;3.80;2.80;;;;;;;;;;5033972;28;20028;-76
2021/06/05 07:31:46;;;;;;;5.80;3.05;;;;;;;;;;5027514;28;20033;-76
2021/06/05 07:34:11;;;;;;;3.78;2.30;;;;;;;;;;5014621;28;20033;-77
2021/06/05 07:36:42;;;;;;;6.30;3.35;;;;;;;;;;5014595;28;20037;-77
2021/06/05 07:39:09;;;;;;;4.88;2.90;;;;;;;;;;5014955;28;20108;-77
2021/06/05 07:41:35;;;;;;;4.88;2.78;;;;;;;;;;5014678;28;20068;-77
2021/06/05 07:44:01;;;;;;;5.50;3.05;;;;;;;;;;4994175;28;20109;-76
2021/06/05 07:46:50;;;;;;;6.05;3.22;;;;;;;;;;5011169;28;20087;-76
2021/06/05 07:49:15;;;;;;;4.65;2.80;;;;;;;;;;5023468;28;20065;-76
2021/06/05 07:51:49;;;;;;;7.07;2.78;;;;;;;;;;4997731;28;20724;-76
2021/06/05 07:54:15;;;;;;;4.38;2.50;;;;;;;;;;5014832;28;20033;-77
2021/06/05 07:56:40;;;;;;;4.88;3.50;;;;;;;;;;5014773;28;20040;-77
2021/06/05 07:59:06;;;;;;;3.53;2.90;;;;;;;;;;5030409;28;20553;-77
2021/06/05 08:01:31;;;;;;;4.28;3.08;;;;;;;;;;5010473;28;20037;-77
2021/06/05 08:03:57;;;;;;;4.07;2.25;;;;;;;;;;4994445;28;20042;-77
2021/06/05 08:06:22;;;;;;;4.30;2.45;;;;;;;;;;5010978;28;20476;-77
2021/06/05 08:08:48;;;;;;;5.88;3.25;;;;;;;;;;4978446;28;20026;-77
2021/06/05 08:11:15;;;;;;;4.55;2.78;;;;;;;;;;4977946;28;20046;-77
2021/06/05 08:13:40;;;;;;;4.15;2.83;;;;;;;;;;4978063;28;20050;-77
2021/06/05 08:16:06;;;;;;;3.70;2.53;;;;;;;;;;4994181;28;20069;-77
2021/06/05 08:18:32;;;;;;;4.18;2.42;;;;;;;;;;5008522;28;20030;-77
2021/06/05 08:21:03;;;;;;;4.30;2.92;;;;;;;;;;4994691;28;20080;-77
2021/06/05 08:23:30;;;;;;;4.03;2.28;;;;;;;;;;4977856;28;20470;-77
2021/06/05 08:25:56;;;;;;;3.33;2.20;;;;;;;;;;4978264;28;20093;-76
2021/06/05 08:28:24;;;;;;;3.97;2.90;;;;;;;;;;5002693;28;20025;-77
2021/06/05 08:30:50;;;;;;;4.10;3.03;;;;;;;;;;5033895;28;20029;-77
2021/06/05 08:33:16;;;;;;;3.20;2.42;;;;;;;;;;4997490;28;20041;-76
2021/06/05 08:35:41;;;;;;;3.83;2.45;;;;;;;;;;5014069;28;20102;-77
2021/06/05 08:38:08;;;;;;;4.00;2.85;;;;;;;;;;5001918;28;20075;-76
2021/06/05 08:40:48;;;;;;;3.83;2.65;;;;;;;;;;5033890;28;20026;-76
2021/06/05 08:43:19;;;;;;;4.03;2.90;;;;;;;;;;5034129;28;20113;-76
2021/06/05 08:45:44;;;;;;;5.20;2.78;;;;;;;;;;5034261;28;20045;-76
2021/06/05 08:48:13;;;;;;;4.47;3.28;;;;;;;;;;5051049;28;20035;-76
2021/06/05 08:50:39;;;;;;;4.35;2.65;;;;;;;;;;5001651;28;20064;-76
2021/06/05 08:53:23;;;;;;;3.78;3.00;;;;;;;;;;5017821;28;20029;-76
2021/06/05 08:55:56;;;;;;;4.72;3.00;;;;;;;;;;5019133;28;20056;-76
2021/06/05 08:58:38;;;;;;;3.65;2.55;;;;;;;;;;5001578;28;20068;-76
2021/06/05 09:01:19;;;;;;;5.10;3.13;;;;;;;;;;5030715;28;20045;-76
2021/06/05 09:03:49;;;;;;;4.85;3.88;;;;;;;;;;4981273;28;20037;-76
2021/06/05 09:06:38;;;;;;;5.20;4.70;;;;;;;;;;4981767;28;20033;-76
2021/06/05 09:09:05;;;;;;;4.82;3.30;;;;;;;;;;5000464;28;20128;-76
2021/06/05 09:11:30;;;;;;;4.93;3.30;;;;;;;;;;4996911;28;20415;-76
2021/06/05 09:13:56;;;;;;;4.60;3.83;;;;;;;;;;4997461;28;20030;-76
2021/06/05 09:16:23;;;;;;;5.10;3.60;;;;;;;;;;4997482;28;20034;-76
2021/06/05 09:18:55;;;;;;;7.72;4.78;;;;;;;;;;5026366;28;20034;-76
2021/06/05 09:21:45;;;;;;;6.05;4.05;;;;;;;;;;5016014;28;20025;-76
2021/06/05 09:24:31;;;;;;;6.20;3.30;;;;;;;;;;5032176;28;20057;-76
2021/06/05 09:27:07;;;;;;;5.13;3.60;;;;;;;;;;5033390;28;20029;-76
2021/06/05 09:29:48;;;;;;;5.10;4.13;;;;;;;;;;5047548;28;20036;-76
2021/06/05 09:32:21;;;;;;;4.77;4.27;;;;;;;;;;5053771;28;20032;-76
2021/06/05 09:34:52;;;;;;;6.78;4.68;;;;;;;;;;5053278;28;20601;-76
2021/06/05 09:37:32;;;;;;;6.72;4.82;;;;;;;;;;5037262;28;20106;-76
2021/06/05 09:40:12;;;;;;;6.80;5.07;;;;;;;;;;5036929;28;20190;-76
2021/06/05 09:42:41;;;;;;;5.13;4.40;;;;;;;;;;5038996;28;20043;-76
2021/06/05 09:45:18;;;;;;;7.57;5.13;;;;;;;;;;5004241;28;20247;-76
2021/06/05 09:47:43;;;;;;;5.88;4.75;;;;;;;;;;5019965;28;20029;-76
2021/06/05 09:50:23;;;;;;;7.70;5.38;;;;;;;;;;5035347;28;20031;-75
2021/06/05 09:52:49;;;;;;;6.20;4.70;;;;;;;;;;5013802;28;20084;-76
2021/06/05 09:55:14;;;;;;;6.68;4.88;;;;;;;;;;4996566;28;20100;-75
2021/06/05 09:57:42;;;;;;;6.35;5.30;;;;;;;;;;5029664;28;20037;-75
2021/06/05 10:00:15;;;;;;;6.05;4.70;;;;;;;;;;4996905;28;20555;-76
2021/06/05 10:02:45;;;;;;;5.97;5.05;;;;;;;;;;5031248;28;20068;-75
2021/06/05 10:05:28;;;;;;;6.88;5.60;;;;;;;;;;5032893;28;20025;-76
2021/06/05 10:07:58;;;;;;;7.78;5.88;;;;;;;;;;5016517;28;20044;-76
2021/06/05 10:10:39;;;;;;;5.68;4.85;;;;;;;;;;5016375;28;20040;-76
2021/06/05 10:13:13;;;;;;;7.80;5.85;;;;;;;;;;5000803;28;20065;-76
2021/06/05 10:15:53;;;;;;;7.07;6.22;;;;;;;;;;5032933;28;20079;-76
2021/06/05 10:18:21;;;;;;;6.30;5.63;;;;;;;;;;5016759;28;20029;-76
2021/06/05 10:20:51;;;;;;;6.03;5.38;;;;;;;;;;5000028;28;20433;-76
2021/06/05 10:23:22;;;;;;;8.48;6.50;;;;;;;;;;5016052;28;20037;-76
2021/06/05 10:25:50;;;;;;;8.13;6.47;;;;;;;;;;4999791;28;20111;-76
2021/06/05 10:28:21;;;;;;;7.55;6.70;;;;;;;;;;5019485;28;20031;-76
2021/06/05 10:30:57;;;;;;;11.90;8.02;;;;;;;;;;5035453;28;20033;-76
2021/06/05 10:33:34;;;;;;;10.13;7.53;;;;;;;;;;5052031;28;20049;-76
2021/06/05 10:36:00;;;;;;;9.88;7.93;;;;;;;;;;5035045;28;20037;-76
2021/06/05 10:38:39;;;;;;;13.27;7.68;;;;;;;;;;4999470;28;20033;-77
2021/06/05 10:41:05;;;;;;;14.32;10.35;;;;;;;;;;5016452;28;20026;-76
2021/06/05 10:43:31;;;;;;;10.85;8.80;;;;;;;;;;5015468;28;20038;-76
2021/06/05 10:45:57;;;;;;;13.68;11.38;;;;;;;;;;5015190;28;20045;-77
2021/06/05 10:48:40;;;;;;;10.88;9.23;;;;;;;;;;4999664;28;20427;-77
2021/06/05 10:51:14;;;;;;;15.20;11.13;;;;;;;;;;5015887;28;20029;-76
2021/06/05 10:53:45;;;;;;;12.80;9.75;;;;;;;;;;5014982;28;20034;-77
2021/06/05 10:56:19;;;;;;;15.57;11.88;;;;;;;;;;5016057;28;20029;-76
2021/06/05 10:58:54;;;;;;;16.83;11.32;;;;;;;;;;5015466;28;20029;-76
2021/06/05 11:01:28;;;;;;;15.18;11.23;;;;;;;;;;5011632;28;20088;-76
2021/06/05 11:04:00;;;;;;;13.38;10.30;;;;;;;;;;5011559;28;20038;-76
2021/06/05 11:06:50;;;;;;;13.30;10.88;;;;;;;;;;5012193;28;20044;-77
2021/06/05 11:09:27;;;;;;;16.45;10.70;;;;;;;;;;4992887;28;20128;-77
2021/06/05 11:11:52;;;;;;;13.63;10.30;;;;;;;;;;5011656;28;20041;-77
2021/06/05 11:14:23;;;;;;;12.82;9.65;;;;;;;;;;4995390;28;20034;-77
2021/06/05 11:16:58;;;;;;;11.97;8.27;;;;;;;;;;5030880;28;20037;-76
2021/06/05 11:19:51;;;;;;;12.75;10.65;;;;;;;;;;5032325;28;20033;-77
2021/06/05 11:22:24;;;;;;;13.25;10.07;;;;;;;;;;5001471;28;20130;-76
2021/06/05 11:25:08;;;;;;;16.98;10.50;;;;;;;;;;5014731;28;20030;-76
2021/06/05 11:27:36;;;;;;;15.05;9.55;;;;;;;;;;5032321;28;20095;-76
2021/06/05 11:30:04;;;;;;;13.38;9.95;;;;;;;;;;5050618;28;20024;-77
2021/06/05 11:32:33;;;;;;;13.48;9.70;;;;;;;;;;5018096;28;20036;-77
2021/06/05 11:35:01;;;;;;;13.23;9.68;;;;;;;;;;5050917;28;20456;-77
2021/06/05 11:37:33;;;;;;;13.88;9.90;;;;;;;;;;5001751;28;20041;-76
2021/06/05 11:40:04;;;;;;;13.33;10.00;;;;;;;;;;5034480;28;20108;-76
2021/06/05 11:42:30;;;;;;;13.45;9.77;;;;;;;;;;5051037;28;20057;-76
2021/06/05 11:44:55;;;;;;;14.43;9.10;;;;;;;;;;5051833;28;20067;-77
2021/06/05 11:47:21;;;;;;;15.98;12.13;;;;;;;;;;5051056;28;20028;-76
2021/06/05 11:49:52;;;;;;;30.25;25.00;;;;;;;;;;5037405;28;20574;-77
2021/06/05 11:52:31;;;;;;;39.73;33.27;;;;;;;;;;5031717;28;20545;-76
2021/06/05 11:55:06;;;;;;;41.35;31.60;;;;;;;;;;5013825;28;20282;-76
2021/06/05 11:57:40;;;;;;;34.05;26.90;;;;;;;;;;5015506;28;20820;-77
2021/06/05 12:00:08;;;;;;;28.15;23.70;;;;;;;;;;5014048;28;20074;-76
2021/06/05 12:02:39;;;;;;;26.52;20.27;;;;;;;;;;5011180;28;20168;-74
2021/06/05 12:05:19;;;;;;;26.65;19.40;;;;;;;;;;4994909;28;20046;-75
2021/06/05 12:07:45;;;;;;;23.42;17.48;;;;;;;;;;5027073;28;20034;-75
2021/06/05 12:10:12;;;;;;;22.52;15.88;;;;;;;;;;4994307;28;20041;-75
2021/06/05 12:12:48;;;;;;;22.13;16.63;;;;;;;;;;4993355;28;20040;-75
2021/06/05 12:15:19;;;;;;;20.02;14.70;;;;;;;;;;5009943;28;20066;-75
2021/06/05 12:17:46;;;;;;;17.15;12.52;;;;;;;;;;5026707;28;20799;-75
2021/06/05 12:20:27;;;;;;;15.23;11.82;;;;;;;;;;4997546;28;20472;-75
2021/06/05 12:22:54;;;;;;;15.88;11.23;;;;;;;;;;5030399;28;20072;-75
2021/06/05 12:25:29;;;;;;;15.02;10.35;;;;;;;;;;5013616;28;20025;-75
2021/06/05 12:28:15;;;;;;;13.38;10.32;;;;;;;;;;5031525;28;20040;-75
2021/06/05 12:30:43;;;;;;;16.42;10.68;;;;;;;;;;5030099;28;20041;-75
2021/06/05 12:33:11;;;;;;;13.43;8.70;;;;;;;;;;4998206;28;20444;-75
2021/06/05 12:35:46;;;;;;;12.60;8.40;;;;;;;;;;4997769;28;20030;-75
2021/06/05 12:38:17;;;;;;;11.50;8.52;;;;;;;;;;5013817;28;20033;-74
2021/06/05 12:41:04;;;;;;;13.52;8.70;;;;;;;;;;4981833;28;20032;-74
2021/06/05 12:43:32;;;;;;;10.77;8.45;;;;;;;;;;4997801;28;20108;-75
2021/06/05 12:46:09;;;;;;;10.98;7.05;;;;;;;;;;5013863;28;20391;-74
2021/06/05 12:48:34;;;;;;;10.68;6.97;;;;;;;;;;4993182;28;20037;-75
2021/06/05 12:51:01;;;;;;;10.48;7.38;;;;;;;;;;5010542;28;20567;-75
2021/06/05 12:53:29;;;;;;;8.80;6.93;;;;;;;;;;4993775;28;20034;-75
2021/06/05 12:56:06;;;;;;;11.05;6.70;;;;;;;;;;5010657;28;20038;-75
2021/06/05 12:58:43;;;;;;;8.75;6.07;;;;;;;;;;5011032;28;20029;-75
2021/06/05 13:01:41;;;;;;;9.25;6.28;;;;;;;;;;5030047;28;20514;-75
2021/06/05 13:04:30;;;;;;;9.50;6.13;;;;;;;;;;5013757;28;20041;-75
2021/06/05 13:07:01;;;;;;;8.73;5.78;;;;;;;;;;5031518;28;20360;-75
2021/06/05 13:09:32;;;;;;;10.00;7.00;;;;;;;;;;5030610;28;20034;-75
2021/06/05 13:11:59;;;;;;;9.67;6.27;;;;;;;;;;5046672;28;20045;-75
2021/06/05 13:14:37;;;;;;;9.23;6.63;;;;;;;;;;5013485;28;20033;-75
2021/06/05 13:17:15;;;;;;;8.45;5.75;;;;;;;;;;5013889;28;20041;-75
2021/06/05 13:19:40;;;;;;;8.93;6.18;;;;;;;;;;5031026;28;20030;-75
2021/06/05 13:22:15;;;;;;;9.32;6.93;;;;;;;;;;5013964;28;20033;-75
2021/06/05 13:25:04;;;;;;;7.82;5.95;;;;;;;;;;5034441;28;20025;-75
2021/06/05 13:27:30;;;;;;;9.52;6.90;;;;;;;;;;5033302;28;20124;-75
2021/06/05 13:30:34;;;;;;;10.73;7.85;;;;;;;;;;5000494;28;20104;-75
2021/06/05 13:32:59;;;;;;;9.98;7.05;;;;;;;;;;5022642;28;20148;-75
2021/06/05 13:35:36;;;;;;;12.18;8.55;;;;;;;;;;5016936;28;20475;-75
2021/06/05 13:38:03;;;;;;;11.18;8.68;;;;;;;;;;5018711;28;20030;-75
2021/06/05 13:40:29;;;;;;;9.70;7.85;;;;;;;;;;5017131;28;20099;-75
2021/06/05 13:42:55;;;;;;;11.93;9.23;;;;;;;;;;5000506;28;20502;-75
2021/06/05 13:45:29;;;;;;;10.65;8.85;;;;;;;;;;4984255;28;20029;-75
2021/06/05 13:47:54;;;;;;;10.43;8.30;;;;;;;;;;5016961;28;20037;-75
2021/06/05 13:50:23;;;;;;;11.30;8.95;;;;;;;;;;4997222;28;20498;-75
2021/06/05 13:52:48;;;;;;;12.48;9.70;;;;;;;;;;4997078;28;20112;-75
2021/06/05 13:55:27;;;;;;;10.40;9.30;;;;;;;;;;4996710;28;20053;-75
2021/06/05 13:57:53;;;;;;;11.45;9.20;;;;;;;;;;5013337;28;20388;-75
2021/06/05 14:00:19;;;;;;;10.30;9.30;;;;;;;;;;4996621;28;20034;-74
2021/06/05 14:02:44;;;;;;;11.43;9.75;;;;;;;;;;5011815;28;20037;-75
2021/06/05 14:05:10;;;;;;;12.55;9.93;;;;;;;;;;5013172;28;20034;-75
2021/06/05 14:07:36;;;;;;;10.63;9.20;;;;;;;;;;4996820;28;20488;-75
2021/06/05 14:10:02;;;;;;;11.40;9.60;;;;;;;;;;5012909;28;20096;-75
2021/06/05 14:12:28;;;;;;;11.27;9.77;;;;;;;;;;5013053;28;20120;-75
2021/06/05 14:14:54;;;;;;;11.85;10.60;;;;;;;;;;5012591;28;20033;-75
2021/06/05 14:17:20;;;;;;;12.75;10.65;;;;;;;;;;4996452;28;20034;-75
2021/06/05 14:19:45;;;;;;;11.50;10.35;;;;;;;;;;4998491;28;20037;-75
2021/06/05 14:22:11;;;;;;;11.82;10.63;;;;;;;;;;5016171;28;20388;-75
2021/06/05 14:24:37;;;;;;;12.70;10.50;;;;;;;;;;5015975;28;20064;-75
2021/06/05 14:27:03;;;;;;;11.20;10.10;;;;;;;;;;4999763;28;20505;-75
2021/06/05 14:29:30;;;;;;;10.95;9.82;;;;;;;;;;5015856;28;20026;-75
2021/06/05 14:31:55;;;;;;;10.82;9.73;;;;;;;;;;5015470;28;20052;-75
2021/06/05 14:34:22;;;;;;;10.15;9.18;;;;;;;;;;5015191;28;20491;-75
2021/06/05 14:36:47;;;;;;;10.93;9.85;;;;;;;;;;5032480;28;20076;-75
2021/06/05 14:39:13;;;;;;;10.50;9.43;;;;;;;;;;5032155;28;20025;-75
2021/06/05 14:42:07;;;;;;;10.35;8.93;;;;;;;;;;5032040;28;20045;-75
2021/06/05 14:44:33;;;;;;;10.60;9.05;;;;;;;;;;5019314;28;20040;-75